Time;durP1;ratioP1;P1;durP2;ratioP2;P2;SDS_P1;SDS_P2;PMS_P1;PMS_P2;Temp;Humidity;BMP_temperature;BMP_pressure;BME280_temperature;BME280_humidity;BME280_pressure;Samples;Min_cycle;Max_cycle;Signal;HPM_P1;HPM_P2
2023/08/25 00:01:16;;;;;;;15.77;12.35;;;;;;;;;;5009823;28;99942;-71
2023/08/25 00:03:43;;;;;;;14.95;13.32;;;;;;;;;;5010838;28;98017;-70
2023/08/25 00:06:10;;;;;;;17.85;13.57;;;;;;;;;;5010289;28;98659;-70
2023/08/25 00:08:37;;;;;;;14.25;12.77;;;;;;;;;;5010596;28;98966;-71
2023/08/25 00:11:03;;;;;;;17.50;12.55;;;;;;;;;;4990641;28;98337;-70
2023/08/25 00:13:31;;;;;;;14.77;13.23;;;;;;;;;;4989491;28;99632;-70
2023/08/25 00:15:58;;;;;;;15.02;13.43;;;;;;;;;;5000751;28;99832;-70
2023/08/25 00:18:24;;;;;;;14.52;12.85;;;;;;;;;;5010488;28;99534;-70
2023/08/25 00:20:51;;;;;;;15.93;14.02;;;;;;;;;;5010271;28;99262;-70
2023/08/25 00:23:17;;;;;;;23.15;14.75;;;;;;;;;;4998725;28;98182;-70
2023/08/25 00:25:44;;;;;;;16.23;14.50;;;;;;;;;;4989906;28;99462;-70
2023/08/25 00:28:11;;;;;;;18.38;14.13;;;;;;;;;;4989818;28;99714;-73
2023/08/25 00:30:39;;;;;;;18.17;15.35;;;;;;;;;;4990308;28;98005;-71
2023/08/25 00:33:06;;;;;;;18.25;15.90;;;;;;;;;;4996897;28;99487;-71
2023/08/25 00:35:32;;;;;;;22.52;15.10;;;;;;;;;;5012329;28;99977;-69
2023/08/25 00:37:59;;;;;;;19.52;16.08;;;;;;;;;;5009120;28;100554;-70
2023/08/25 00:40:25;;;;;;;21.67;16.15;;;;;;;;;;4992661;28;98812;-70
2023/08/25 00:42:52;;;;;;;18.85;15.80;;;;;;;;;;4991043;28;98121;-71
2023/08/25 00:45:18;;;;;;;21.35;17.05;;;;;;;;;;4990226;28;98626;-70
2023/08/25 00:47:45;;;;;;;22.63;16.95;;;;;;;;;;4988011;28;100092;-70
2023/08/25 00:50:13;;;;;;;27.88;17.90;;;;;;;;;;4998379;28;98233;-71
2023/08/25 00:52:41;;;;;;;21.17;16.73;;;;;;;;;;5009008;28;100320;-71
2023/08/25 00:55:08;;;;;;;29.98;17.63;;;;;;;;;;5009235;28;98864;-70
2023/08/25 00:57:35;;;;;;;23.15;17.60;;;;;;;;;;5013371;28;98485;-70
2023/08/25 01:00:02;;;;;;;20.75;18.30;;;;;;;;;;5008265;28;101236;-71
2023/08/25 01:02:28;;;;;;;25.27;18.15;;;;;;;;;;5009299;28;98201;-71
2023/08/25 01:04:56;;;;;;;22.33;19.67;;;;;;;;;;5009647;28;98443;-70
2023/08/25 01:07:22;;;;;;;26.60;18.73;;;;;;;;;;5009057;28;98819;-70
2023/08/25 01:09:49;;;;;;;27.60;20.98;;;;;;;;;;4997702;28;98269;-70
2023/08/25 01:12:27;;;;;;;23.45;19.48;;;;;;;;;;4989340;28;98428;-70
2023/08/25 01:15:16;;;;;;;25.55;20.45;;;;;;;;;;4988992;28;100159;-70
2023/08/25 01:17:44;;;;;;;26.25;20.23;;;;;;;;;;4990256;28;97889;-70
2023/08/25 01:20:14;;;;;;;24.20;20.73;;;;;;;;;;4992622;28;99329;-71
2023/08/25 01:23:03;;;;;;;25.70;22.23;;;;;;;;;;4987858;28;98475;-70
2023/08/25 01:25:30;;;;;;;27.88;21.67;;;;;;;;;;4989845;28;99694;-70
2023/08/25 01:27:58;;;;;;;28.85;22.27;;;;;;;;;;5003296;28;101623;-71
2023/08/25 01:30:26;;;;;;;26.35;21.38;;;;;;;;;;5007519;28;98358;-70
2023/08/25 01:32:53;;;;;;;30.13;22.45;;;;;;;;;;5009471;28;98902;-71
2023/08/25 01:35:39;;;;;;;28.17;22.00;;;;;;;;;;5008872;28;98893;-71
2023/08/25 01:38:10;;;;;;;24.23;21.25;;;;;;;;;;5007848;28;98262;-70
2023/08/25 01:40:55;;;;;;;28.23;22.27;;;;;;;;;;4992204;28;98369;-71
2023/08/25 01:43:23;;;;;;;28.25;21.63;;;;;;;;;;5011585;28;99244;-70
2023/08/25 01:45:50;;;;;;;31.35;23.95;;;;;;;;;;5009507;28;99365;-71
2023/08/25 01:48:18;;;;;;;32.72;23.92;;;;;;;;;;5008498;28;99027;-71
2023/08/25 01:50:44;;;;;;;30.50;23.95;;;;;;;;;;5008770;28;98135;-71
2023/08/25 01:53:11;;;;;;;37.55;25.25;;;;;;;;;;5009875;28;99415;-71
2023/08/25 01:55:38;;;;;;;40.80;26.17;;;;;;;;;;5009268;28;98681;-70
2023/08/25 01:58:04;;;;;;;35.65;25.42;;;;;;;;;;5012197;28;98155;-71
2023/08/25 02:00:31;;;;;;;36.72;26.15;;;;;;;;;;5007793;28;101000;-69
2023/08/25 02:02:58;;;;;;;36.17;26.45;;;;;;;;;;5009772;28;98500;-71
2023/08/25 02:05:25;;;;;;;39.47;27.08;;;;;;;;;;5010831;28;98305;-70
2023/08/25 02:07:51;;;;;;;44.30;28.80;;;;;;;;;;5007793;28;101136;-70
2023/08/25 02:10:19;;;;;;;38.38;28.00;;;;;;;;;;4990236;28;98226;-70
2023/08/25 02:12:46;;;;;;;41.72;27.90;;;;;;;;;;4986458;28;100267;-70
2023/08/25 02:15:12;;;;;;;58.42;31.15;;;;;;;;;;4988078;28;101170;-69
2023/08/25 02:17:40;;;;;;;50.50;31.25;;;;;;;;;;4987976;28;98221;-70
2023/08/25 02:20:07;;;;;;;57.90;32.08;;;;;;;;;;4987202;28;101454;-70
2023/08/25 02:22:34;;;;;;;62.38;32.75;;;;;;;;;;4987828;28;99056;-69
2023/08/25 02:25:00;;;;;;;139.10;35.20;;;;;;;;;;4987675;28;98269;-70
2023/08/25 02:27:27;;;;;;;93.88;36.17;;;;;;;;;;4990928;28;99485;-70
2023/08/25 02:29:53;;;;;;;102.30;37.63;;;;;;;;;;4986993;28;98200;-69
2023/08/25 02:32:20;;;;;;;96.40;37.85;;;;;;;;;;4989411;28;98086;-70
2023/08/25 02:34:47;;;;;;;77.32;37.75;;;;;;;;;;4986455;28;98937;-70
2023/08/25 02:37:14;;;;;;;91.65;39.75;;;;;;;;;;4988599;28;98138;-70
2023/08/25 02:39:40;;;;;;;84.00;39.53;;;;;;;;;;4986122;28;100799;-70
2023/08/25 02:42:07;;;;;;;88.25;41.10;;;;;;;;;;4988601;28;99845;-70
2023/08/25 02:44:35;;;;;;;87.85;40.95;;;;;;;;;;4987222;28;98247;-71
2023/08/25 02:47:02;;;;;;;75.90;40.65;;;;;;;;;;4990310;28;99520;-71
2023/08/25 02:49:28;;;;;;;86.97;41.05;;;;;;;;;;4987518;28;98355;-71
2023/08/25 02:51:56;;;;;;;74.72;41.20;;;;;;;;;;4988972;28;98771;-71
2023/08/25 02:54:25;;;;;;;86.63;39.90;;;;;;;;;;4986625;28;98885;-71
2023/08/25 02:56:51;;;;;;;81.53;41.00;;;;;;;;;;4987232;28;98211;-71
2023/08/25 02:59:18;;;;;;;86.95;43.20;;;;;;;;;;4989649;28;101170;-70
2023/08/25 03:01:44;;;;;;;80.10;42.25;;;;;;;;;;4990111;28;101099;-70
2023/08/25 03:04:11;;;;;;;83.97;43.35;;;;;;;;;;4990685;28;99135;-71
2023/08/25 03:06:37;;;;;;;78.90;42.47;;;;;;;;;;4991195;28;101396;-70
2023/08/25 03:09:04;;;;;;;85.45;41.78;;;;;;;;;;4992546;28;101904;-70
2023/08/25 03:11:31;;;;;;;94.90;42.95;;;;;;;;;;4990668;28;100871;-71
2023/08/25 03:14:01;;;;;;;92.30;42.40;;;;;;;;;;4989903;28;98940;-71
2023/08/25 03:16:29;;;;;;;90.53;41.60;;;;;;;;;;4990708;28;98543;-69
2023/08/25 03:18:56;;;;;;;117.70;40.90;;;;;;;;;;4990894;28;98251;-70
2023/08/25 03:21:25;;;;;;;105.70;42.17;;;;;;;;;;4991017;28;98806;-70
2023/08/25 03:23:52;;;;;;;129.57;42.63;;;;;;;;;;5003838;28;98439;-71
2023/08/25 03:26:18;;;;;;;137.45;41.70;;;;;;;;;;5011406;28;98630;-70
2023/08/25 03:28:47;;;;;;;135.73;40.95;;;;;;;;;;5009281;28;100061;-70
2023/08/25 03:31:13;;;;;;;111.93;40.13;;;;;;;;;;5014595;28;98106;-70
2023/08/25 03:33:41;;;;;;;84.30;39.35;;;;;;;;;;5009974;28;99862;-70
2023/08/25 03:36:07;;;;;;;85.22;42.00;;;;;;;;;;5010810;28;98755;-70
2023/08/25 03:38:34;;;;;;;84.93;41.13;;;;;;;;;;5002042;28;101313;-71
2023/08/25 03:41:00;;;;;;;88.47;43.80;;;;;;;;;;5007046;28;98779;-70
2023/08/25 03:43:27;;;;;;;80.43;41.92;;;;;;;;;;5008386;28;98255;-72
2023/08/25 03:45:53;;;;;;;85.57;43.42;;;;;;;;;;5010039;28;100467;-71
2023/08/25 03:48:20;;;;;;;84.50;43.00;;;;;;;;;;5009317;28;101388;-70
2023/08/25 03:50:46;;;;;;;91.18;43.22;;;;;;;;;;5009224;28;98820;-71
2023/08/25 03:53:13;;;;;;;81.72;44.10;;;;;;;;;;5012401;28;100365;-71
2023/08/25 03:55:40;;;;;;;80.85;44.33;;;;;;;;;;5009828;28;98195;-71
2023/08/25 03:58:06;;;;;;;73.93;42.50;;;;;;;;;;5009402;28;99280;-70
2023/08/25 04:00:32;;;;;;;80.47;42.97;;;;;;;;;;5009367;28;99634;-70
2023/08/25 04:02:59;;;;;;;73.65;42.28;;;;;;;;;;5009601;28;98349;-70
2023/08/25 04:05:26;;;;;;;65.85;40.72;;;;;;;;;;5009724;28;98404;-70
2023/08/25 04:07:53;;;;;;;76.28;41.45;;;;;;;;;;4988549;28;101628;-70
2023/08/25 04:10:20;;;;;;;66.70;40.17;;;;;;;;;;4969567;28;98231;-70
2023/08/25 04:12:47;;;;;;;67.97;39.30;;;;;;;;;;4969827;28;98407;-69
2023/08/25 04:15:13;;;;;;;67.25;38.72;;;;;;;;;;4992455;28;100632;-70
2023/08/25 04:17:40;;;;;;;64.80;37.97;;;;;;;;;;4989333;28;98587;-70
2023/08/25 04:20:06;;;;;;;64.43;38.88;;;;;;;;;;4988513;28;101706;-71
2023/08/25 04:22:35;;;;;;;59.88;37.22;;;;;;;;;;4989199;28;98292;-70
2023/08/25 04:25:02;;;;;;;65.63;38.30;;;;;;;;;;4990185;28;99456;-71
2023/08/25 04:27:28;;;;;;;63.33;37.90;;;;;;;;;;4990385;28;98802;-71
2023/08/25 04:29:55;;;;;;;61.42;37.03;;;;;;;;;;4989603;28;98214;-70
2023/08/25 04:32:22;;;;;;;51.95;35.08;;;;;;;;;;4987608;28;100424;-70
2023/08/25 04:34:49;;;;;;;55.63;34.70;;;;;;;;;;4989059;28;99034;-70
2023/08/25 04:37:16;;;;;;;54.42;35.80;;;;;;;;;;4992203;28;97963;-71
2023/08/25 04:39:42;;;;;;;54.42;36.40;;;;;;;;;;4987747;28;103329;-70
2023/08/25 04:42:09;;;;;;;55.75;34.70;;;;;;;;;;4990571;28;98224;-70
2023/08/25 04:44:35;;;;;;;48.25;32.42;;;;;;;;;;4990211;28;98484;-70
2023/08/25 04:47:03;;;;;;;56.45;34.08;;;;;;;;;;4988227;28;98585;-70
2023/08/25 04:49:29;;;;;;;51.65;34.70;;;;;;;;;;5007749;28;98288;-70
2023/08/25 04:51:58;;;;;;;53.22;34.25;;;;;;;;;;5008779;28;100995;-70
2023/08/25 04:54:25;;;;;;;52.08;35.08;;;;;;;;;;5009062;28;98809;-71
2023/08/25 04:56:53;;;;;;;52.70;34.15;;;;;;;;;;5011310;28;98291;-71
2023/08/25 04:59:20;;;;;;;49.70;32.78;;;;;;;;;;4993598;28;99012;-71
2023/08/25 05:01:46;;;;;;;51.25;32.15;;;;;;;;;;4989629;28;98421;-70
2023/08/25 05:04:13;;;;;;;50.15;33.28;;;;;;;;;;4989377;28;99581;-70
2023/08/25 05:06:40;;;;;;;49.40;33.88;;;;;;;;;;5008344;28;100882;-70
2023/08/25 05:09:06;;;;;;;52.30;33.30;;;;;;;;;;4993803;28;98372;-70
2023/08/25 05:11:34;;;;;;;49.45;32.17;;;;;;;;;;4989982;28;98226;-70
2023/08/25 05:14:01;;;;;;;56.00;32.90;;;;;;;;;;4988228;28;99897;-70
2023/08/25 05:16:28;;;;;;;48.55;32.35;;;;;;;;;;4988141;28;100113;-71
2023/08/25 05:18:59;;;;;;;49.23;32.87;;;;;;;;;;4992494;28;100639;-71
2023/08/25 05:21:26;;;;;;;50.85;32.50;;;;;;;;;;4989252;28;98642;-71
2023/08/25 05:24:12;;;;;;;44.72;31.85;;;;;;;;;;5009970;28;98943;-71
2023/08/25 05:26:39;;;;;;;51.05;31.65;;;;;;;;;;5009224;28;100083;-70
2023/08/25 05:29:05;;;;;;;48.17;31.23;;;;;;;;;;5007573;28;98288;-70
2023/08/25 05:31:32;;;;;;;48.60;30.75;;;;;;;;;;5008295;28;98554;-70
2023/08/25 05:34:08;;;;;;;42.28;30.50;;;;;;;;;;5007931;28;100856;-71
2023/08/25 05:36:43;;;;;;;47.42;30.88;;;;;;;;;;5007337;28;98108;-70
2023/08/25 05:39:11;;;;;;;44.22;30.90;;;;;;;;;;4999758;28;100619;-71
2023/08/25 05:41:38;;;;;;;47.35;30.42;;;;;;;;;;5011517;28;102027;-70
2023/08/25 05:44:04;;;;;;;42.22;29.35;;;;;;;;;;5009021;28;98599;-71
2023/08/25 05:46:31;;;;;;;44.35;30.50;;;;;;;;;;5008146;28;100126;-70
2023/08/25 05:48:58;;;;;;;42.47;30.25;;;;;;;;;;5008135;28;98259;-71
2023/08/25 05:51:24;;;;;;;43.00;29.25;;;;;;;;;;5007206;28;99702;-71
2023/08/25 05:53:51;;;;;;;44.28;28.38;;;;;;;;;;5007988;28;101620;-70
2023/08/25 05:56:18;;;;;;;44.65;30.13;;;;;;;;;;5007961;28;98217;-70
2023/08/25 05:58:44;;;;;;;46.55;29.65;;;;;;;;;;5008218;28;98431;-71
2023/08/25 06:01:11;;;;;;;42.17;29.45;;;;;;;;;;4990681;28;99874;-70
2023/08/25 06:03:38;;;;;;;43.42;29.52;;;;;;;;;;4982709;28;98671;-69
2023/08/25 06:06:04;;;;;;;41.92;29.85;;;;;;;;;;4978994;28;99669;-70
2023/08/25 06:08:31;;;;;;;39.13;28.63;;;;;;;;;;4987144;28;98339;-70
2023/08/25 06:10:57;;;;;;;41.47;28.90;;;;;;;;;;4987436;28;99305;-70
2023/08/25 06:13:26;;;;;;;40.63;28.88;;;;;;;;;;4990278;28;100112;-71
2023/08/25 06:15:53;;;;;;;39.63;28.15;;;;;;;;;;4989451;28;98417;-71
2023/08/25 06:18:19;;;;;;;37.42;26.35;;;;;;;;;;4988170;28;99467;-70
2023/08/25 06:20:46;;;;;;;25.35;19.75;;;;;;;;;;4988755;28;99049;-73
2023/08/25 06:23:14;;;;;;;26.70;22.23;;;;;;;;;;4988750;28;98298;-72
2023/08/25 06:25:40;;;;;;;33.83;24.58;;;;;;;;;;4991124;28;99419;-71
2023/08/25 06:28:07;;;;;;;28.70;20.88;;;;;;;;;;4989043;28;98216;-72
2023/08/25 06:30:33;;;;;;;27.95;22.13;;;;;;;;;;5000394;28;99660;-72
2023/08/25 06:33:00;;;;;;;26.40;20.38;;;;;;;;;;4989675;27;98977;-72
2023/08/25 06:35:26;;;;;;;36.70;24.08;;;;;;;;;;4991148;28;99250;-72
2023/08/25 06:37:53;;;;;;;29.50;23.98;;;;;;;;;;4992309;28;98553;-73
2023/08/25 06:40:20;;;;;;;22.58;19.88;;;;;;;;;;4990841;28;98984;-72
2023/08/25 06:42:46;;;;;;;25.92;20.67;;;;;;;;;;4992104;28;99012;-72
2023/08/25 06:45:12;;;;;;;29.88;23.42;;;;;;;;;;4991996;28;99441;-70
2023/08/25 06:47:39;;;;;;;25.88;19.08;;;;;;;;;;5006542;28;98174;-72
2023/08/25 06:50:05;;;;;;;31.90;23.65;;;;;;;;;;5012287;28;99589;-72
2023/08/25 06:52:32;;;;;;;28.85;21.90;;;;;;;;;;4990018;28;100305;-72
2023/08/25 06:54:58;;;;;;;31.98;23.67;;;;;;;;;;4981874;28;99867;-72
2023/08/25 06:57:25;;;;;;;30.35;22.17;;;;;;;;;;4991588;28;99481;-71
2023/08/25 06:59:51;;;;;;;34.47;25.63;;;;;;;;;;4989772;28;99793;-71
2023/08/25 07:02:18;;;;;;;26.58;21.17;;;;;;;;;;4990976;28;98248;-71
2023/08/25 07:04:44;;;;;;;31.23;22.75;;;;;;;;;;4986101;28;98945;-73
2023/08/25 07:07:11;;;;;;;37.00;22.85;;;;;;;;;;4986787;28;100106;-72
2023/08/25 07:09:37;;;;;;;27.83;21.75;;;;;;;;;;4974057;28;99396;-71
2023/08/25 07:12:05;;;;;;;35.28;23.20;;;;;;;;;;4976399;28;98924;-71
2023/08/25 07:14:31;;;;;;;27.40;21.95;;;;;;;;;;4990750;28;98280;-72
2023/08/25 07:16:58;;;;;;;28.63;20.33;;;;;;;;;;4992221;28;98808;-71
2023/08/25 07:19:24;;;;;;;29.65;21.23;;;;;;;;;;4977737;28;99019;-70
2023/08/25 07:21:51;;;;;;;32.80;23.25;;;;;;;;;;4971052;28;98327;-71
2023/08/25 07:24:17;;;;;;;34.00;22.73;;;;;;;;;;4970955;28;98784;-71
2023/08/25 07:26:46;;;;;;;31.02;21.52;;;;;;;;;;4975436;28;100052;-71
2023/08/25 07:29:13;;;;;;;31.45;23.35;;;;;;;;;;4977668;28;98215;-71
2023/08/25 07:31:39;;;;;;;26.15;21.50;;;;;;;;;;4991128;28;99384;-71
2023/08/25 07:34:06;;;;;;;30.17;23.15;;;;;;;;;;4991462;28;98013;-71
2023/08/25 07:36:32;;;;;;;26.15;21.63;;;;;;;;;;4990161;28;99375;-71
2023/08/25 07:38:58;;;;;;;29.27;21.48;;;;;;;;;;4991283;28;99780;-71
2023/08/25 07:41:25;;;;;;;30.67;23.58;;;;;;;;;;4991380;28;98205;-71
2023/08/25 07:43:51;;;;;;;33.20;22.65;;;;;;;;;;4989863;28;98531;-71
2023/08/25 07:46:18;;;;;;;28.45;22.65;;;;;;;;;;4990777;28;99934;-71
2023/08/25 07:48:45;;;;;;;33.08;22.45;;;;;;;;;;4990565;28;98726;-71
2023/08/25 07:51:12;;;;;;;29.08;23.38;;;;;;;;;;4993382;28;99396;-72
2023/08/25 07:53:44;;;;;;;31.10;22.30;;;;;;;;;;4990884;28;98257;-71
2023/08/25 07:56:10;;;;;;;31.20;23.30;;;;;;;;;;4990088;28;99528;-71
2023/08/25 07:58:37;;;;;;;37.65;24.02;;;;;;;;;;4990845;28;100205;-70
2023/08/25 08:01:03;;;;;;;27.88;22.65;;;;;;;;;;4990659;28;98267;-70
2023/08/25 08:03:31;;;;;;;30.40;22.73;;;;;;;;;;4990215;28;98423;-71
2023/08/25 08:05:57;;;;;;;37.15;23.70;;;;;;;;;;4991059;28;100277;-70
2023/08/25 08:08:24;;;;;;;30.80;22.13;;;;;;;;;;4990675;28;98176;-71
2023/08/25 08:10:50;;;;;;;31.83;24.75;;;;;;;;;;4990253;28;99833;-71
2023/08/25 08:13:16;;;;;;;39.47;22.90;;;;;;;;;;4992825;28;99887;-71
2023/08/25 08:15:43;;;;;;;37.17;23.30;;;;;;;;;;4990492;28;98204;-71
2023/08/25 08:18:10;;;;;;;30.08;21.90;;;;;;;;;;4989908;28;99897;-71
2023/08/25 08:20:36;;;;;;;32.53;22.13;;;;;;;;;;4990282;28;98213;-71
2023/08/25 08:23:03;;;;;;;29.23;22.88;;;;;;;;;;4990403;28;98577;-72
2023/08/25 08:25:30;;;;;;;30.25;21.90;;;;;;;;;;4989163;28;99303;-71
2023/08/25 08:27:57;;;;;;;29.45;21.92;;;;;;;;;;4990567;28;98232;-71
2023/08/25 08:30:23;;;;;;;26.58;20.77;;;;;;;;;;4990432;28;98517;-71
2023/08/25 08:32:50;;;;;;;32.97;22.10;;;;;;;;;;4989517;28;99950;-71
2023/08/25 08:35:17;;;;;;;31.60;22.33;;;;;;;;;;4994063;28;98229;-70
2023/08/25 08:37:44;;;;;;;29.80;22.80;;;;;;;;;;4989495;28;100509;-72
2023/08/25 08:40:10;;;;;;;28.80;22.77;;;;;;;;;;4989932;28;98244;-71
2023/08/25 08:42:39;;;;;;;31.92;23.02;;;;;;;;;;4990460;28;99454;-71
2023/08/25 08:45:07;;;;;;;30.95;22.10;;;;;;;;;;4990394;28;98923;-71
2023/08/25 08:47:37;;;;;;;36.00;23.83;;;;;;;;;;4989345;28;98793;-70
2023/08/25 08:50:06;;;;;;;25.70;22.10;;;;;;;;;;4990723;28;98510;-71
2023/08/25 08:52:33;;;;;;;33.90;23.05;;;;;;;;;;4987687;28;100465;-72
2023/08/25 08:54:59;;;;;;;32.10;23.50;;;;;;;;;;4993639;28;98189;-72
2023/08/25 08:57:26;;;;;;;34.80;22.52;;;;;;;;;;4989487;28;100303;-71
2023/08/25 08:59:53;;;;;;;36.28;23.77;;;;;;;;;;4989382;28;98496;-72
2023/08/25 09:02:22;;;;;;;28.67;22.77;;;;;;;;;;4989236;28;98751;-70
2023/08/25 09:04:52;;;;;;;33.13;23.95;;;;;;;;;;4989662;28;99092;-71
2023/08/25 09:07:20;;;;;;;39.50;26.88;;;;;;;;;;4988515;28;98242;-70
2023/08/25 09:09:47;;;;;;;30.98;24.75;;;;;;;;;;4990024;28;99479;-71
2023/08/25 09:12:18;;;;;;;28.50;23.73;;;;;;;;;;4989560;28;100505;-72
2023/08/25 09:14:45;;;;;;;35.35;25.20;;;;;;;;;;4988724;28;98240;-71
2023/08/25 09:17:15;;;;;;;34.90;25.38;;;;;;;;;;4992635;28;98518;-71
2023/08/25 09:19:41;;;;;;;34.10;25.10;;;;;;;;;;4983300;28;98291;-72
2023/08/25 09:22:11;;;;;;;32.00;25.15;;;;;;;;;;4989298;28;98611;-71
2023/08/25 09:24:38;;;;;;;36.95;27.33;;;;;;;;;;4989363;28;100576;-71
2023/08/25 09:27:05;;;;;;;43.17;26.67;;;;;;;;;;4988928;28;98227;-71
2023/08/25 09:29:43;;;;;;;40.53;27.27;;;;;;;;;;4988511;28;99635;-72
2023/08/25 09:32:14;;;;;;;40.45;26.13;;;;;;;;;;4989339;28;99830;-71
2023/08/25 09:34:41;;;;;;;32.03;24.33;;;;;;;;;;4988595;28;98298;-71
2023/08/25 09:37:08;;;;;;;33.70;25.27;;;;;;;;;;4989259;28;98734;-71
2023/08/25 09:39:41;;;;;;;38.45;25.30;;;;;;;;;;4993137;28;99908;-71
2023/08/25 09:42:08;;;;;;;38.63;26.30;;;;;;;;;;4989460;28;98444;-71
2023/08/25 09:44:34;;;;;;;35.72;25.30;;;;;;;;;;4989294;28;100813;-71
2023/08/25 09:47:01;;;;;;;35.95;25.42;;;;;;;;;;4988944;28;98222;-71
2023/08/25 09:49:36;;;;;;;40.20;25.65;;;;;;;;;;4988264;28;99665;-71
2023/08/25 09:52:09;;;;;;;38.33;26.25;;;;;;;;;;4987849;28;100228;-71
2023/08/25 09:54:35;;;;;;;39.70;27.23;;;;;;;;;;4988608;28;98040;-72
2023/08/25 09:57:02;;;;;;;39.25;26.33;;;;;;;;;;4988614;28;99525;-71
2023/08/25 09:59:28;;;;;;;42.50;25.30;;;;;;;;;;4988620;28;99934;-70
2023/08/25 10:01:57;;;;;;;36.85;24.95;;;;;;;;;;4992704;28;98256;-70
2023/08/25 10:04:24;;;;;;;33.13;26.42;;;;;;;;;;4987748;28;99424;-71
2023/08/25 10:06:51;;;;;;;40.42;26.48;;;;;;;;;;4989212;28;98208;-71
2023/08/25 10:09:18;;;;;;;35.63;26.48;;;;;;;;;;4992126;28;99363;-71
2023/08/25 10:11:45;;;;;;;29.13;25.38;;;;;;;;;;4991757;28;99056;-71
2023/08/25 10:14:12;;;;;;;36.20;23.77;;;;;;;;;;4991941;28;98346;-72
2023/08/25 10:16:41;;;;;;;32.92;22.92;;;;;;;;;;4991531;28;98515;-70
2023/08/25 10:19:11;;;;;;;26.35;20.48;;;;;;;;;;4992481;28;99290;-71
2023/08/25 10:21:38;;;;;;;22.92;19.20;;;;;;;;;;4992395;28;98229;-70
2023/08/25 10:24:06;;;;;;;26.52;20.98;;;;;;;;;;4994366;28;98763;-71
2023/08/25 10:26:32;;;;;;;28.08;18.88;;;;;;;;;;4992043;28;98242;-71
2023/08/25 10:28:59;;;;;;;22.50;18.00;;;;;;;;;;4992391;28;99545;-70
2023/08/25 10:31:25;;;;;;;21.85;17.17;;;;;;;;;;4991019;28;100178;-72
2023/08/25 10:33:52;;;;;;;18.42;15.77;;;;;;;;;;4992798;28;98371;-72
2023/08/25 10:36:19;;;;;;;16.83;15.13;;;;;;;;;;4991477;28;99755;-71
2023/08/25 10:38:46;;;;;;;19.77;15.52;;;;;;;;;;4991391;28;98959;-71
2023/08/25 10:41:14;;;;;;;18.27;14.43;;;;;;;;;;4990747;28;98213;-72
2023/08/25 10:43:44;;;;;;;19.52;15.40;;;;;;;;;;4992024;28;99339;-71
2023/08/25 10:46:10;;;;;;;20.70;13.88;;;;;;;;;;4994243;28;100022;-71
2023/08/25 10:48:38;;;;;;;15.93;10.77;;;;;;;;;;4992012;28;99310;-72
2023/08/25 10:51:09;;;;;;;12.30;10.25;;;;;;;;;;4991920;28;100077;-71
2023/08/25 10:53:38;;;;;;;10.15;9.15;;;;;;;;;;4986757;28;98425;-70
2023/08/25 10:56:15;;;;;;;9.23;7.25;;;;;;;;;;4976925;28;99376;-69
2023/08/25 10:58:41;;;;;;;6.85;6.25;;;;;;;;;;4984381;28;99937;-70
2023/08/25 11:01:08;;;;;;;9.13;6.97;;;;;;;;;;4987969;28;98245;-69
2023/08/25 11:03:48;;;;;;;7.28;6.57;;;;;;;;;;4971036;28;99418;-69
2023/08/25 11:06:33;;;;;;;8.75;7.95;;;;;;;;;;4975851;28;99925;-70
2023/08/25 11:09:00;;;;;;;8.82;7.88;;;;;;;;;;4974107;28;99802;-69
2023/08/25 11:11:29;;;;;;;8.90;7.80;;;;;;;;;;4978090;28;99927;-72
2023/08/25 11:13:57;;;;;;;10.18;9.05;;;;;;;;;;4989410;28;98245;-69
2023/08/25 11:16:24;;;;;;;9.60;8.63;;;;;;;;;;4975966;28;99620;-70
2023/08/25 11:18:50;;;;;;;8.68;7.88;;;;;;;;;;5003172;28;99854;-70
2023/08/25 11:21:21;;;;;;;11.27;8.90;;;;;;;;;;4975421;28;98703;-69
2023/08/25 11:23:48;;;;;;;10.43;9.03;;;;;;;;;;4987140;28;99473;-70
2023/08/25 11:26:16;;;;;;;10.55;9.30;;;;;;;;;;4995697;28;99729;-70
2023/08/25 11:28:45;;;;;;;10.27;9.20;;;;;;;;;;5000512;28;98919;-71
2023/08/25 11:31:12;;;;;;;9.95;9.02;;;;;;;;;;4970856;28;100026;-69
2023/08/25 11:33:38;;;;;;;10.57;9.35;;;;;;;;;;4972157;28;99250;-70
2023/08/25 11:36:05;;;;;;;10.73;9.63;;;;;;;;;;4971694;28;99376;-71
2023/08/25 11:38:32;;;;;;;11.40;9.23;;;;;;;;;;4970483;28;99481;-71
2023/08/25 11:40:59;;;;;;;10.60;8.35;;;;;;;;;;4974456;28;99998;-69
2023/08/25 11:43:27;;;;;;;10.85;9.82;;;;;;;;;;4968703;28;99464;-70
2023/08/25 11:45:54;;;;;;;11.07;9.93;;;;;;;;;;4974358;28;99936;-70
2023/08/25 11:48:21;;;;;;;11.20;10.10;;;;;;;;;;4973923;28;99768;-70
2023/08/25 11:50:47;;;;;;;11.80;10.65;;;;;;;;;;4987349;28;99127;-70
2023/08/25 11:53:13;;;;;;;12.05;10.90;;;;;;;;;;4980483;28;98580;-70
2023/08/25 11:55:42;;;;;;;16.15;13.05;;;;;;;;;;4970430;28;99952;-70
2023/08/25 11:58:10;;;;;;;15.68;12.38;;;;;;;;;;4974018;28;99150;-70
2023/08/25 12:00:37;;;;;;;14.80;12.63;;;;;;;;;;4978089;28;99573;-70
2023/08/25 12:03:05;;;;;;;16.30;13.93;;;;;;;;;;4977124;28;102128;-69
2023/08/25 12:05:35;;;;;;;15.55;13.80;;;;;;;;;;4973651;28;98984;-71
2023/08/25 12:08:02;;;;;;;19.63;13.82;;;;;;;;;;4978227;28;98504;-70
2023/08/25 12:10:33;;;;;;;15.77;13.88;;;;;;;;;;4969852;28;99916;-71
2023/08/25 12:13:00;;;;;;;17.90;14.75;;;;;;;;;;4973100;28;100010;-70
2023/08/25 12:15:26;;;;;;;20.80;14.25;;;;;;;;;;4969285;28;100486;-69
2023/08/25 12:17:53;;;;;;;15.80;13.93;;;;;;;;;;4973413;28;101645;-70
2023/08/25 12:20:20;;;;;;;16.83;14.13;;;;;;;;;;4968818;28;99611;-70
2023/08/25 12:22:49;;;;;;;14.88;13.25;;;;;;;;;;4975686;28;100037;-70
2023/08/25 12:25:17;;;;;;;15.77;14.18;;;;;;;;;;4968862;28;100062;-70
2023/08/25 12:27:44;;;;;;;16.92;14.88;;;;;;;;;;4972316;28;99425;-70
2023/08/25 12:30:11;;;;;;;18.45;15.90;;;;;;;;;;4981966;28;100215;-70
2023/08/25 12:32:37;;;;;;;17.52;15.25;;;;;;;;;;4970906;28;100179;-70
2023/08/25 12:35:04;;;;;;;19.33;17.08;;;;;;;;;;4975096;28;100154;-71
2023/08/25 12:37:30;;;;;;;23.73;16.73;;;;;;;;;;4981248;28;100282;-69
2023/08/25 12:39:57;;;;;;;23.13;17.48;;;;;;;;;;4982964;28;98323;-71
2023/08/25 12:42:23;;;;;;;19.85;17.10;;;;;;;;;;4980231;28;98622;-70
2023/08/25 12:44:50;;;;;;;23.80;18.00;;;;;;;;;;4983408;28;100157;-69
2023/08/25 12:47:17;;;;;;;21.05;17.38;;;;;;;;;;4981786;28;98771;-71
2023/08/25 12:49:43;;;;;;;24.30;17.83;;;;;;;;;;4971083;28;99590;-70
2023/08/25 12:52:10;;;;;;;22.35;17.35;;;;;;;;;;4972893;28;98858;-71
2023/08/25 12:54:36;;;;;;;22.20;18.38;;;;;;;;;;4979468;28;98325;-70
2023/08/25 12:57:03;;;;;;;24.88;17.52;;;;;;;;;;4971459;28;100292;-70
2023/08/25 12:59:29;;;;;;;26.70;18.90;;;;;;;;;;4970445;28;99611;-69
2023/08/25 13:01:56;;;;;;;22.85;16.92;;;;;;;;;;4972297;28;99780;-71
2023/08/25 13:04:22;;;;;;;19.45;17.20;;;;;;;;;;4968070;28;100481;-71
2023/08/25 13:06:49;;;;;;;18.20;15.73;;;;;;;;;;4969839;28;98503;-69
2023/08/25 13:09:16;;;;;;;17.83;14.70;;;;;;;;;;4973390;28;98650;-71
2023/08/25 13:11:42;;;;;;;16.02;13.90;;;;;;;;;;4969705;28;101898;-70
2023/08/25 13:14:10;;;;;;;19.92;15.15;;;;;;;;;;4968936;28;100349;-71
2023/08/25 13:16:37;;;;;;;18.60;15.05;;;;;;;;;;4972471;28;99902;-70
2023/08/25 13:19:03;;;;;;;17.63;14.13;;;;;;;;;;4971666;28;98910;-69
2023/08/25 13:21:30;;;;;;;15.05;13.27;;;;;;;;;;4967677;28;99941;-70
2023/08/25 13:23:56;;;;;;;16.00;14.05;;;;;;;;;;4974090;28;100468;-70
2023/08/25 13:26:34;;;;;;;16.45;14.73;;;;;;;;;;4972828;28;100167;-69
2023/08/25 13:29:01;;;;;;;16.95;15.07;;;;;;;;;;4969249;28;99968;-71
2023/08/25 13:31:28;;;;;;;21.02;16.02;;;;;;;;;;4969559;28;98860;-69
2023/08/25 13:33:54;;;;;;;22.20;15.27;;;;;;;;;;4969989;28;99525;-70
2023/08/25 13:36:21;;;;;;;18.80;15.98;;;;;;;;;;4972790;28;100297;-70
2023/08/25 13:38:47;;;;;;;19.00;15.93;;;;;;;;;;4970856;28;98978;-69
2023/08/25 13:41:14;;;;;;;21.13;15.93;;;;;;;;;;4969974;28;99698;-69
2023/08/25 13:43:40;;;;;;;19.52;17.42;;;;;;;;;;4969719;28;100234;-70
2023/08/25 13:46:07;;;;;;;21.48;19.13;;;;;;;;;;4971162;28;100064;-69
2023/08/25 13:48:34;;;;;;;22.80;17.65;;;;;;;;;;4969926;28;99578;-70
2023/08/25 13:51:00;;;;;;;23.30;17.65;;;;;;;;;;4967886;28;101007;-69
2023/08/25 13:53:26;;;;;;;18.45;16.50;;;;;;;;;;4974091;28;100211;-69
2023/08/25 13:55:53;;;;;;;20.25;17.90;;;;;;;;;;4972640;28;99528;-69
2023/08/25 13:58:20;;;;;;;27.10;20.60;;;;;;;;;;4973354;28;99876;-69
2023/08/25 14:00:47;;;;;;;21.23;19.02;;;;;;;;;;4975042;28;98350;-69
2023/08/25 14:03:13;;;;;;;24.75;19.77;;;;;;;;;;4971690;28;100759;-69
2023/08/25 14:05:40;;;;;;;24.23;21.38;;;;;;;;;;4979893;28;98280;-70
2023/08/25 14:08:09;;;;;;;26.65;21.70;;;;;;;;;;4972296;28;101639;-70
2023/08/25 14:10:35;;;;;;;24.95;21.40;;;;;;;;;;4972077;28;99969;-71
2023/08/25 14:13:02;;;;;;;29.90;22.08;;;;;;;;;;4983159;28;98216;-70
2023/08/25 14:15:29;;;;;;;31.35;22.88;;;;;;;;;;4972752;28;99631;-70
2023/08/25 14:17:55;;;;;;;30.17;22.85;;;;;;;;;;4965148;28;100095;-71